createdAt,value
2022-12-04T00:01:26.600Z,34.77
2022-12-04T00:03:55.624Z,36.93
2022-12-04T00:06:24.487Z,34.77
2022-12-04T00:08:53.494Z,34.00
2022-12-04T00:11:25.365Z,33.70
2022-12-04T00:13:54.091Z,28.07
2022-12-04T00:16:23.712Z,30.47
2022-12-04T00:18:52.144Z,31.77
2022-12-04T00:21:21.405Z,29.80
2022-12-04T00:23:50.148Z,39.40
2022-12-04T00:26:19.816Z,24.93
2022-12-04T00:28:50.180Z,33.43
2022-12-04T00:31:19.771Z,38.87
2022-12-04T00:33:48.583Z,22.10
2022-12-04T00:36:20.936Z,33.10
2022-12-04T00:38:49.497Z,34.73
2022-12-04T00:41:19.254Z,35.70
2022-12-04T00:43:48.066Z,32.27
2022-12-04T00:46:18.602Z,33.63
2022-12-04T00:48:47.380Z,34.17
2022-12-04T00:51:17.763Z,32.20
2022-12-04T00:53:46.604Z,34.20
2022-12-04T00:56:18.581Z,35.63
2022-12-04T00:58:47.437Z,35.73
2022-12-04T01:01:16.863Z,37.17
2022-12-04T01:03:47.135Z,32.77
2022-12-04T01:06:25.272Z,21.93
2022-12-04T01:08:54.448Z,25.93
2022-12-04T01:11:23.769Z,36.80
2022-12-04T01:13:52.421Z,36.37
2022-12-04T01:16:21.843Z,33.33
2022-12-04T01:18:52.112Z,25.60
2022-12-04T01:21:20.674Z,33.73
2022-12-04T01:23:48.689Z,29.90
2022-12-04T01:26:17.204Z,35.73
2022-12-04T01:28:45.664Z,35.87
2022-12-04T01:31:17.442Z,38.50
2022-12-04T01:33:46.229Z,38.03
2022-12-04T01:36:16.703Z,23.50
2022-12-04T01:38:45.272Z,42.40
2022-12-04T01:41:14.722Z,36.97
2022-12-04T01:43:43.162Z,31.37
2022-12-04T01:46:12.050Z,34.33
2022-12-04T01:48:42.843Z,30.93
2022-12-04T01:51:15.471Z,38.40
2022-12-04T01:53:46.617Z,28.53
2022-12-04T01:56:15.713Z,38.23
2022-12-04T01:58:46.865Z,32.23
2022-12-04T02:01:15.321Z,26.30
2022-12-04T02:03:43.757Z,28.60
2022-12-04T02:06:12.227Z,34.10
2022-12-04T02:08:40.823Z,33.60
2022-12-04T02:11:15.064Z,34.83
2022-12-04T02:13:48.560Z,39.13
2022-12-04T02:16:21.461Z,37.67
2022-12-04T02:18:56.038Z,30.67
2022-12-04T02:21:29.555Z,29.27
2022-12-04T02:24:06.219Z,37.63
2022-12-04T02:26:41.854Z,22.27
2022-12-04T02:29:14.095Z,36.57
2022-12-04T02:31:44.076Z,35.70
2022-12-04T02:34:15.956Z,38.17
2022-12-04T02:36:46.707Z,36.67
2022-12-04T02:39:21.383Z,37.93
2022-12-04T02:41:53.037Z,32.33
2022-12-04T02:44:24.290Z,36.33
2022-12-04T02:46:54.633Z,28.20
2022-12-04T02:49:25.617Z,32.53
2022-12-04T02:51:55.292Z,29.60
2022-12-04T02:54:26.514Z,36.57
2022-12-04T02:56:55.721Z,39.83
2022-12-04T02:59:30.785Z,37.57
2022-12-04T03:02:03.141Z,30.00
2022-12-04T03:04:31.982Z,38.83
2022-12-04T03:07:02.480Z,37.43
2022-12-04T03:09:35.050Z,40.67
2022-12-04T03:12:07.402Z,27.23
2022-12-04T03:14:40.069Z,36.40
2022-12-04T03:17:11.133Z,39.80
2022-12-04T03:19:42.395Z,37.43
2022-12-04T03:22:12.407Z,39.13
2022-12-04T03:24:42.172Z,41.50
2022-12-04T03:27:12.730Z,40.77
2022-12-04T03:29:45.036Z,42.80
2022-12-04T03:32:15.018Z,36.47
2022-12-04T03:34:48.801Z,39.70
2022-12-04T03:37:20.528Z,31.07
2022-12-04T03:39:53.434Z,32.90
2022-12-04T03:42:24.191Z,33.30
2022-12-04T03:44:56.357Z,26.27
2022-12-04T03:47:28.213Z,22.27
2022-12-04T03:49:59.299Z,40.60
2022-12-04T03:52:30.698Z,40.50
2022-12-04T03:55:02.892Z,31.07
2022-12-04T03:57:33.303Z,41.47
2022-12-04T04:00:06.935Z,42.43
2022-12-04T04:02:37.800Z,39.73
2022-12-04T04:05:07.124Z,39.53
2022-12-04T04:07:39.713Z,40.60
2022-12-04T04:10:15.213Z,27.67
2022-12-04T04:12:46.055Z,45.67
2022-12-04T04:15:35.331Z,26.73
2022-12-04T04:18:21.927Z,43.20
2022-12-04T04:21:13.455Z,39.90
2022-12-04T04:24:02.589Z,26.73
2022-12-04T04:26:34.251Z,40.83
2022-12-04T04:29:02.410Z,41.67
2022-12-04T04:31:35.100Z,42.43
2022-12-04T04:34:07.295Z,39.13
2022-12-04T04:36:45.714Z,33.70
2022-12-04T04:39:17.186Z,34.97
2022-12-04T04:41:48.852Z,40.53
2022-12-04T04:44:21.419Z,34.43
2022-12-04T04:46:54.698Z,36.67
2022-12-04T04:49:26.834Z,31.43
2022-12-04T04:51:56.046Z,39.20
2022-12-04T04:54:25.078Z,35.97
2022-12-04T04:56:53.360Z,30.87
2022-12-04T04:59:21.574Z,32.17
2022-12-04T05:01:51.244Z,35.90
2022-12-04T05:04:19.440Z,41.10
2022-12-04T05:06:48.964Z,39.00
2022-12-04T05:09:17.098Z,34.77
2022-12-04T05:11:45.542Z,34.23
2022-12-04T05:14:13.933Z,31.60
2022-12-04T05:16:42.473Z,29.77
2022-12-04T05:19:29.943Z,28.37
2022-12-04T05:21:58.514Z,30.17
2022-12-04T05:24:27.001Z,34.50
2022-12-04T05:26:55.103Z,27.87
2022-12-04T05:29:23.547Z,31.07
2022-12-04T05:31:52.079Z,36.40
2022-12-04T05:34:21.512Z,24.57
2022-12-04T05:36:49.743Z,38.87
2022-12-04T05:39:17.828Z,41.90
2022-12-04T05:41:46.300Z,33.57
2022-12-04T05:44:14.512Z,35.20
2022-12-04T05:46:43.112Z,30.93
2022-12-04T05:49:11.725Z,33.87
2022-12-04T05:51:41.286Z,32.50
2022-12-04T05:54:09.723Z,26.90
2022-12-04T05:56:38.236Z,36.83
2022-12-04T05:59:06.763Z,38.07
2022-12-04T06:01:35.301Z,25.60
2022-12-04T06:04:03.840Z,37.00
2022-12-04T06:06:32.347Z,30.07
2022-12-04T06:09:02.094Z,30.43
2022-12-04T06:11:32.016Z,37.40
2022-12-04T06:14:01.607Z,34.70
2022-12-04T06:16:32.483Z,37.83
2022-12-04T06:19:01.975Z,27.23
2022-12-04T06:21:31.534Z,43.27
2022-12-04T06:24:01.552Z,39.07
2022-12-04T06:26:29.883Z,37.00
2022-12-04T06:28:59.889Z,34.23
2022-12-04T06:31:30.498Z,38.77
2022-12-04T06:33:59.413Z,40.57
2022-12-04T06:36:28.268Z,38.37
2022-12-04T06:38:57.884Z,34.33
2022-12-04T06:41:29.826Z,33.47
2022-12-04T06:43:58.045Z,27.67
2022-12-04T06:46:27.912Z,38.60
2022-12-04T06:48:57.511Z,37.20
2022-12-04T06:51:27.099Z,32.13
2022-12-04T06:53:55.637Z,37.73
2022-12-04T06:56:25.673Z,37.17
2022-12-04T06:58:56.712Z,35.77
2022-12-04T07:01:26.698Z,39.23
2022-12-04T07:03:55.718Z,37.27
2022-12-04T07:06:26.454Z,37.83
2022-12-04T07:08:59.723Z,34.80
2022-12-04T07:11:27.877Z,36.00
2022-12-04T07:13:57.739Z,35.07
2022-12-04T07:16:27.216Z,40.73
2022-12-04T07:18:56.641Z,36.77
2022-12-04T07:21:26.998Z,29.73
2022-12-04T07:23:56.979Z,31.20
2022-12-04T07:26:26.446Z,38.80
2022-12-04T07:28:55.533Z,33.03
2022-12-04T07:31:26.697Z,33.40
2022-12-04T07:33:55.694Z,37.63
2022-12-04T07:36:25.286Z,46.13
2022-12-04T07:38:53.804Z,41.33
2022-12-04T07:41:22.141Z,37.13
2022-12-04T07:43:53.190Z,26.47
2022-12-04T07:46:23.126Z,34.47
2022-12-04T07:48:52.754Z,25.87
2022-12-04T07:51:23.378Z,36.73
2022-12-04T07:53:53.199Z,37.20
2022-12-04T07:56:21.903Z,15.50
2022-12-04T07:58:50.233Z,36.13
2022-12-04T08:01:20.638Z,35.33
2022-12-04T08:03:50.361Z,30.60
2022-12-04T08:06:21.760Z,37.70
2022-12-04T08:08:51.465Z,42.13
2022-12-04T08:11:22.227Z,37.63
2022-12-04T08:13:51.031Z,39.07
2022-12-04T08:16:19.176Z,40.20
2022-12-04T08:18:48.648Z,32.83
2022-12-04T08:21:19.260Z,37.83
2022-12-04T08:23:50.460Z,35.80
2022-12-04T08:26:19.329Z,36.93
2022-12-04T08:28:47.476Z,37.30
2022-12-04T08:31:18.158Z,40.43
2022-12-04T08:33:47.759Z,39.07
2022-12-04T08:36:17.692Z,42.33
2022-12-04T08:38:45.820Z,36.67
2022-12-04T08:41:16.971Z,36.73
2022-12-04T08:43:45.176Z,36.57
2022-12-04T08:46:15.567Z,36.63
2022-12-04T08:48:44.160Z,41.20
2022-12-04T08:51:14.807Z,40.83
2022-12-04T08:53:43.303Z,39.30
2022-12-04T08:56:11.807Z,37.53
2022-12-04T08:58:41.287Z,40.53
2022-12-04T09:01:11.233Z,40.43
2022-12-04T09:03:39.718Z,41.30
2022-12-04T09:06:09.472Z,39.10
2022-12-04T09:08:38.015Z,41.50
2022-12-04T09:11:07.654Z,33.27
2022-12-04T09:13:36.288Z,38.47
2022-12-04T09:16:07.955Z,38.07
2022-12-04T09:18:36.881Z,33.73
2022-12-04T09:21:07.286Z,41.17
2022-12-04T09:23:36.044Z,35.70
2022-12-04T09:26:04.841Z,42.13
2022-12-04T09:28:33.211Z,30.70
2022-12-04T09:31:03.009Z,41.70
2022-12-04T09:33:32.507Z,37.77
2022-12-04T09:36:01.294Z,32.77
2022-12-04T09:38:30.276Z,26.87
2022-12-04T09:41:16.373Z,37.60
2022-12-04T09:43:49.637Z,34.47
2022-12-04T09:46:22.947Z,29.50
2022-12-04T09:48:54.002Z,30.60
2022-12-04T09:51:24.987Z,32.73
2022-12-04T09:53:57.986Z,31.47
2022-12-04T09:56:30.345Z,36.00
2022-12-04T09:59:06.145Z,34.70
2022-12-04T10:01:41.375Z,33.07
2022-12-04T10:04:12.034Z,34.23
2022-12-04T10:06:46.856Z,25.60
2022-12-04T10:09:20.832Z,35.47
2022-12-04T10:11:57.237Z,28.73
2022-12-04T10:14:46.022Z,34.27
2022-12-04T10:17:32.378Z,34.17
2022-12-04T10:20:14.156Z,33.07
2022-12-04T10:22:54.531Z,25.77
2022-12-04T10:25:24.063Z,21.47
2022-12-04T10:27:55.002Z,29.10
2022-12-04T10:30:25.469Z,26.77
2022-12-04T10:32:59.169Z,24.17
2022-12-04T10:35:31.885Z,22.67
2022-12-04T10:38:04.346Z,26.43
2022-12-04T10:40:35.381Z,22.77
2022-12-04T10:43:12.328Z,21.67
2022-12-04T10:45:40.486Z,27.60
2022-12-04T10:48:10.741Z,22.20
2022-12-04T10:50:40.766Z,28.93
2022-12-04T10:53:13.613Z,28.07
2022-12-04T10:55:42.063Z,25.47
2022-12-04T10:58:17.580Z,29.17
2022-12-04T11:01:03.382Z,21.73
2022-12-04T11:03:32.196Z,18.60
2022-12-04T11:06:04.606Z,22.73
2022-12-04T11:08:37.611Z,23.73
2022-12-04T11:11:08.825Z,18.33
2022-12-04T11:13:36.975Z,24.80
2022-12-04T11:16:06.548Z,19.00
2022-12-04T11:18:36.688Z,22.67
2022-12-04T11:21:08.665Z,26.20
2022-12-04T11:23:43.400Z,25.53
2022-12-04T11:26:12.455Z,24.50
2022-12-04T11:28:45.350Z,23.60
2022-12-04T11:31:21.240Z,25.20
2022-12-04T11:33:53.735Z,22.37
2022-12-04T11:36:27.063Z,24.33
2022-12-04T11:39:08.417Z,27.77
2022-12-04T11:41:36.571Z,12.60
2022-12-04T11:44:08.214Z,25.13
2022-12-04T11:46:36.440Z,24.67
2022-12-04T11:49:04.558Z,24.33
2022-12-04T11:51:53.507Z,22.80
2022-12-04T11:54:31.014Z,19.63
2022-12-04T11:57:10.900Z,22.73
2022-12-04T11:59:56.083Z,24.03
2022-12-04T12:02:49.457Z,23.37
2022-12-04T12:05:34.200Z,20.67
2022-12-04T12:08:12.607Z,15.23
2022-12-04T12:10:48.369Z,18.83
2022-12-04T12:13:26.203Z,26.80
2022-12-04T12:16:02.997Z,27.00
2022-12-04T12:18:48.629Z,23.43
2022-12-04T12:21:21.843Z,21.60
2022-12-04T12:24:02.050Z,21.87
2022-12-04T12:26:42.064Z,27.80
2022-12-04T12:29:22.693Z,14.10
2022-12-04T12:32:11.707Z,19.97
2022-12-04T12:34:41.058Z,26.33
2022-12-04T12:37:24.821Z,23.93
2022-12-04T12:39:59.735Z,21.50
2022-12-04T12:42:32.077Z,21.57
2022-12-04T12:45:07.143Z,21.23
2022-12-04T12:47:41.789Z,20.77
2022-12-04T12:50:17.519Z,17.73
2022-12-04T12:52:53.485Z,18.37
2022-12-04T12:55:26.183Z,18.63
2022-12-04T12:58:02.841Z,22.23
2022-12-04T13:00:33.220Z,16.80
2022-12-04T13:03:05.945Z,21.57
2022-12-04T13:05:38.404Z,21.40
2022-12-04T13:08:16.866Z,18.23
2022-12-04T13:10:49.117Z,23.93
2022-12-04T13:13:24.316Z,17.87
2022-12-04T13:15:56.982Z,16.27
2022-12-04T13:18:28.481Z,18.07
2022-12-04T13:20:58.159Z,15.53
2022-12-04T13:23:42.009Z,17.03
2022-12-04T13:26:21.187Z,15.93
2022-12-04T13:28:56.054Z,13.97
2022-12-04T13:31:35.060Z,13.70
2022-12-04T13:34:16.920Z,14.20
2022-12-04T13:37:04.759Z,19.10
2022-12-04T13:39:58.936Z,16.47
2022-12-04T13:42:30.351Z,13.53
2022-12-04T13:45:00.252Z,15.03
2022-12-04T13:47:31.748Z,18.30
2022-12-04T13:50:27.969Z,18.37
2022-12-04T13:52:56.316Z,20.37
2022-12-04T13:55:27.196Z,19.90
2022-12-04T13:57:58.505Z,17.03
2022-12-04T14:00:31.564Z,25.07
2022-12-04T14:03:04.068Z,23.23
2022-12-04T14:05:40.761Z,24.20
2022-12-04T14:08:21.765Z,20.10
2022-12-04T14:11:01.819Z,25.77
2022-12-04T14:13:44.301Z,29.27
2022-12-04T14:16:21.583Z,31.60
2022-12-04T14:18:52.174Z,29.77
2022-12-04T14:21:20.540Z,21.63
2022-12-04T14:23:49.175Z,24.67
2022-12-04T14:26:37.295Z,20.50
2022-12-04T14:29:30.878Z,22.13
2022-12-04T14:32:06.876Z,28.97
2022-12-04T14:34:36.449Z,29.80
2022-12-04T14:37:05.735Z,27.10
2022-12-04T14:39:36.533Z,24.20
2022-12-04T14:42:08.432Z,23.80
2022-12-04T14:44:38.194Z,23.50
2022-12-04T14:47:14.934Z,30.77
2022-12-04T14:49:53.998Z,30.30
2022-12-04T14:52:25.958Z,22.63
2022-12-04T14:55:05.975Z,26.73
2022-12-04T14:57:42.139Z,21.33
2022-12-04T15:00:19.229Z,24.83
2022-12-04T15:02:49.275Z,23.33
2022-12-04T15:05:20.929Z,24.93
2022-12-04T15:07:50.424Z,19.27
2022-12-04T15:10:40.089Z,22.53
2022-12-04T15:13:08.203Z,25.73
2022-12-04T15:15:38.300Z,21.97
2022-12-04T15:18:14.886Z,24.70
2022-12-04T15:20:55.929Z,26.10
2022-12-04T15:26:20.983Z,26.40
2022-12-04T15:28:52.464Z,27.83
2022-12-04T15:31:24.931Z,26.87
2022-12-04T15:33:55.120Z,22.13
2022-12-04T15:36:30.430Z,22.13
2022-12-04T15:38:59.571Z,22.83
2022-12-04T15:41:32.412Z,21.13
2022-12-04T15:44:00.900Z,23.93
2022-12-04T15:46:35.237Z,22.00
2022-12-04T15:49:08.667Z,20.93
2022-12-04T15:51:37.136Z,18.90
2022-12-04T15:54:05.494Z,18.10
2022-12-04T15:56:33.632Z,25.03
2022-12-04T15:59:03.563Z,18.60
2022-12-04T16:01:41.383Z,23.13
2022-12-04T16:04:22.429Z,25.17
2022-12-04T16:06:53.753Z,18.10
2022-12-04T16:09:25.007Z,22.80
2022-12-04T16:11:59.737Z,17.17
2022-12-04T16:14:27.878Z,21.87
2022-12-04T16:17:05.950Z,14.93
2022-12-04T16:19:35.886Z,21.87
2022-12-04T16:22:06.038Z,25.27
2022-12-04T16:24:34.112Z,22.97
2022-12-04T16:27:03.462Z,24.60
2022-12-04T16:29:31.703Z,23.83
2022-12-04T16:32:03.592Z,21.13
2022-12-04T16:34:31.927Z,15.57
2022-12-04T16:37:00.791Z,24.53
2022-12-04T16:39:28.838Z,19.87
2022-12-04T16:41:57.223Z,16.30
2022-12-04T16:44:25.281Z,18.70
2022-12-04T16:46:53.774Z,22.70
2022-12-04T16:49:23.578Z,21.73
2022-12-04T16:51:51.853Z,21.73
2022-12-04T16:54:20.168Z,16.13
2022-12-04T16:56:48.377Z,18.77
2022-12-04T16:59:16.424Z,12.40
2022-12-04T17:01:46.939Z,14.23
2022-12-04T17:04:15.655Z,20.47
2022-12-04T17:06:45.780Z,21.90
2022-12-04T17:09:14.453Z,22.13
2022-12-04T17:11:42.969Z,20.73
2022-12-04T17:14:11.370Z,19.53
2022-12-04T17:16:42.569Z,21.23
2022-12-04T17:19:12.061Z,21.17
2022-12-04T17:21:41.666Z,20.30
2022-12-04T17:24:11.377Z,24.10
2022-12-04T17:26:39.617Z,23.60
2022-12-04T17:29:07.690Z,21.07
2022-12-04T17:31:35.848Z,20.57
2022-12-04T17:34:03.928Z,17.43
2022-12-04T17:36:32.469Z,20.47
2022-12-04T17:39:02.593Z,20.83
2022-12-04T17:41:32.065Z,26.20
2022-12-04T17:44:01.603Z,23.13
2022-12-04T17:46:29.849Z,25.10
2022-12-04T17:49:01.594Z,23.23
2022-12-04T17:51:34.968Z,25.53
2022-12-04T17:54:03.049Z,20.50
2022-12-04T17:56:33.844Z,19.50
2022-12-04T17:59:02.256Z,24.57
2022-12-04T18:01:31.048Z,25.77
2022-12-04T18:04:01.772Z,27.00
2022-12-04T18:06:31.579Z,25.47
2022-12-04T18:08:59.938Z,22.10
2022-12-04T18:11:29.818Z,28.33
2022-12-04T18:14:00.227Z,28.93
2022-12-04T18:16:29.885Z,27.67
2022-12-04T18:18:59.060Z,22.10
2022-12-04T18:21:27.757Z,25.33
2022-12-04T18:23:57.907Z,26.53
2022-12-04T18:26:26.978Z,20.97
2022-12-04T18:28:56.691Z,22.67
2022-12-04T18:31:26.154Z,22.63
2022-12-04T18:33:54.210Z,16.93
2022-12-04T18:36:24.162Z,32.43
2022-12-04T18:38:55.244Z,23.50
2022-12-04T18:41:24.249Z,25.97
2022-12-04T18:43:52.707Z,29.63
2022-12-04T18:46:21.667Z,31.70
2022-12-04T18:48:55.221Z,32.03
2022-12-04T18:51:24.606Z,31.43
2022-12-04T18:53:53.747Z,28.47
2022-12-04T18:56:22.577Z,29.53
2022-12-04T18:58:50.765Z,32.80
2022-12-04T19:01:20.368Z,23.60
2022-12-04T19:03:49.258Z,35.53
2022-12-04T19:06:19.034Z,31.20
2022-12-04T19:08:47.195Z,30.77
2022-12-04T19:11:16.884Z,32.20
2022-12-04T19:13:45.055Z,31.37
2022-12-04T19:16:13.761Z,28.83
2022-12-04T19:18:42.235Z,34.03
2022-12-04T19:21:10.471Z,33.63
2022-12-04T19:23:40.025Z,31.20
2022-12-04T19:26:08.147Z,33.07
2022-12-04T19:28:37.136Z,34.27
2022-12-04T19:31:05.679Z,37.43
2022-12-04T19:33:34.033Z,36.30
2022-12-04T19:36:03.899Z,33.33
2022-12-04T19:38:33.018Z,37.70
2022-12-04T19:41:09.321Z,32.00
2022-12-04T19:43:37.842Z,34.50
2022-12-04T19:46:06.411Z,33.23
2022-12-04T19:48:34.713Z,34.97
2022-12-04T19:51:07.619Z,35.57
2022-12-04T19:53:40.612Z,34.97
2022-12-04T19:56:12.770Z,39.23
2022-12-04T19:58:41.124Z,35.37
2022-12-04T20:01:12.489Z,33.47
2022-12-04T20:03:40.687Z,35.90
2022-12-04T20:06:10.562Z,36.97
2022-12-04T20:08:39.379Z,34.87
2022-12-04T20:11:09.438Z,35.03
2022-12-04T20:13:39.542Z,36.27
2022-12-04T20:16:09.317Z,37.60
2022-12-04T20:18:38.064Z,38.07
2022-12-04T20:21:11.005Z,36.23
2022-12-04T20:23:39.403Z,38.73
2022-12-04T20:26:08.761Z,39.83
2022-12-04T20:28:38.328Z,41.00
2022-12-04T20:31:13.726Z,44.00
2022-12-04T20:33:42.144Z,38.20
2022-12-04T20:36:11.290Z,40.40
2022-12-04T20:38:40.103Z,41.83
2022-12-04T20:41:13.224Z,38.03
2022-12-04T20:43:42.971Z,38.33
2022-12-04T20:46:15.638Z,38.57
2022-12-04T20:48:48.287Z,40.13
2022-12-04T20:51:17.353Z,38.70
2022-12-04T20:53:45.874Z,41.30
2022-12-04T20:56:14.848Z,40.67
2022-12-04T20:58:44.370Z,46.40
2022-12-04T21:01:14.305Z,39.77
2022-12-04T21:03:43.177Z,45.83
2022-12-04T21:06:13.826Z,41.70
2022-12-04T21:08:57.674Z,47.23
2022-12-04T21:11:28.407Z,47.30
2022-12-04T21:14:19.186Z,41.70
2022-12-04T21:16:48.338Z,46.77
2022-12-04T21:19:18.678Z,49.43
2022-12-04T21:21:47.203Z,51.40
2022-12-04T21:24:17.697Z,45.47
2022-12-04T21:26:47.092Z,43.47
2022-12-04T21:29:17.007Z,52.77
2022-12-04T21:31:45.625Z,46.63
2022-12-04T21:34:16.382Z,45.77
2022-12-04T21:36:46.224Z,43.10
2022-12-04T21:39:14.595Z,44.50
2022-12-04T21:42:00.862Z,41.47
2022-12-04T21:44:30.584Z,39.20
2022-12-04T21:46:58.998Z,42.83
2022-12-04T21:49:27.543Z,41.43
2022-12-04T21:51:57.825Z,44.10
2022-12-04T21:54:27.328Z,41.20
2022-12-04T21:56:55.778Z,39.33
2022-12-04T21:59:24.312Z,41.53
2022-12-04T22:01:54.608Z,33.60
2022-12-04T22:04:23.160Z,36.43
2022-12-04T22:06:51.672Z,37.80
2022-12-04T22:09:20.078Z,32.40
2022-12-04T22:11:48.462Z,41.80
2022-12-04T22:14:16.954Z,34.77
2022-12-04T22:16:45.462Z,32.20
2022-12-04T22:19:15.550Z,36.30
2022-12-04T22:21:43.974Z,39.43
2022-12-04T22:24:12.699Z,21.33
2022-12-04T22:26:41.067Z,38.63
2022-12-04T22:29:34.232Z,37.53
2022-12-04T22:31:57.648Z,38.50
2022-12-04T22:34:27.103Z,34.50
2022-12-04T22:36:55.526Z,45.70
2022-12-04T22:39:23.923Z,35.60
2022-12-04T22:41:51.982Z,35.87
2022-12-04T22:44:20.404Z,38.17
2022-12-04T22:46:48.865Z,37.87
2022-12-04T22:49:17.279Z,37.93
2022-12-04T22:51:47.051Z,36.40
2022-12-04T22:54:15.868Z,35.97
2022-12-04T22:56:44.584Z,41.60
2022-12-04T22:59:12.994Z,36.23
2022-12-04T23:01:41.429Z,38.53
2022-12-04T23:04:09.763Z,34.43
2022-12-04T23:06:38.145Z,38.07
2022-12-04T23:09:08.694Z,25.53
2022-12-04T23:11:37.160Z,24.90
2022-12-04T23:14:06.789Z,35.20
2022-12-04T23:16:37.303Z,35.07
2022-12-04T23:19:06.468Z,39.07
2022-12-04T23:21:34.942Z,36.00
2022-12-04T23:24:03.339Z,37.67
2022-12-04T23:26:33.920Z,43.30
2022-12-04T23:29:02.588Z,41.03
2022-12-04T23:31:31.375Z,38.40
2022-12-04T23:34:00.051Z,34.13
2022-12-04T23:36:28.706Z,41.83
2022-12-04T23:38:57.053Z,42.53
2022-12-04T23:41:26.191Z,40.13
2022-12-04T23:43:56.178Z,40.67
2022-12-04T23:46:25.754Z,43.57
2022-12-04T23:48:54.108Z,41.80
2022-12-04T23:51:22.861Z,42.63
2022-12-04T23:53:51.706Z,44.07
2022-12-04T23:56:20.890Z,51.73
2022-12-04T23:58:50.257Z,41.40
